Time;durP1;ratioP1;P1;durP2;ratioP2;P2;SDS_P1;SDS_P2;PMS_P1;PMS_P2;Temp;Humidity;BMP_temperature;BMP_pressure;BME280_temperature;BME280_humidity;BME280_pressure;Samples;Min_cycle;Max_cycle;Signal;HPM_P1;HPM_P2
2021/11/01 00:00:52;;;;;;;;;;;;;;;;;;5133592;28;19935;-68
2021/11/01 00:03:18;;;;;;;;;;;;;;;;;;5133201;28;20313;-68
2021/11/01 00:05:46;;;;;;;;;;;;;;;;;;5133095;27;19929;-68
2021/11/01 00:08:12;;;;;;;;;;;;;;;;;;5133195;28;19973;-68
2021/11/01 00:10:39;;;;;;;;;;;;;;;;;;5133327;28;19930;-68
2021/11/01 00:13:05;;;;;;;;;;;;;;;;;;5133474;27;19927;-68
2021/11/01 00:15:31;;;;;;;;;;;;;;;;;;5133039;28;20381;-68
2021/11/01 00:17:58;;;;;;;;;;;;;;;;;;5133635;27;19930;-68
2021/11/01 00:20:24;;;;;;;;;;;;;;;;;;5133126;28;20401;-68
2021/11/01 00:22:50;;;;;;;;;;;;;;;;;;5132792;28;19934;-68
2021/11/01 00:25:17;;;;;;;;;;;;;;;;;;5136405;27;19930;-68
2021/11/01 00:27:43;;;;;;;;;;;;;;;;;;5136991;27;19935;-68
2021/11/01 00:30:09;;;;;;;;;;;;;;;;;;5137152;27;19923;-68
2021/11/01 00:32:36;;;;;;;;;;;;;;;;;;5137318;27;19923;-68
2021/11/01 00:35:02;;;;;;;;;;;;;;;;;;5137185;27;19934;-68
2021/11/01 00:37:28;;;;;;;;;;;;;;;;;;5137189;27;19923;-68
2021/11/01 00:39:56;;;;;;;;;;;;;;;;;;5137405;27;19924;-69
2021/11/01 00:42:23;;;;;;;;;;;;;;;;;;5137244;27;19938;-68
2021/11/01 00:44:49;;;;;;;;;;;;;;;;;;5136546;27;20392;-68
2021/11/01 00:47:16;;;;;;;;;;;;;;;;;;5137038;27;19932;-68
2021/11/01 00:49:42;;;;;;;;;;;;;;;;;;5136795;27;19976;-69
2021/11/01 00:52:08;;;;;;;;;;;;;;;;;;5137082;27;19930;-68
2021/11/01 00:54:36;;;;;;;;;;;;;;;;;;5136490;27;19923;-68
2021/11/01 00:57:02;;;;;;;;;;;;;;;;;;5136848;27;19928;-68
2021/11/01 00:59:28;;;;;;;;;;;;;;;;;;5136744;27;19924;-68
2021/11/01 01:01:55;;;;;;;;;;;;;;;;;;5136801;27;19930;-68
2021/11/01 01:04:24;;;;;;;;;;;;;;;;;;5136599;27;20382;-68
2021/11/01 01:06:50;;;;;;;;;;;;;;;;;;5136323;27;19923;-68
2021/11/01 01:09:16;;;;;;;;;;;;;;;;;;5136789;27;19923;-69
2021/11/01 01:11:43;;;;;;;;;;;;;;;;;;5136293;27;20301;-68
2021/11/01 01:14:09;;;;;;;;;;;;;;;;;;5136579;27;20022;-68
2021/11/01 01:16:42;;;;;;;;;;;;;;;;;;5136316;27;19923;-68
2021/11/01 01:19:15;;;;;;;;;;;;;;;;;;5136734;27;19928;-68
2021/11/01 01:24:25;;;;;;;;;;;;;;;;;;5136241;27;19922;-68
2021/11/01 01:26:51;;;;;;;;;;;;;;;;;;5136297;27;19924;-69
2021/11/01 01:29:18;;;;;;;;;;;;;;;;;;5136406;27;20022;-68
2021/11/01 01:31:44;;;;;;;;;;;;;;;;;;5136154;27;19953;-68
2021/11/01 01:34:10;;;;;;;;;;;;;;;;;;5136040;27;19930;-68
2021/11/01 01:36:37;;;;;;;;;;;;;;;;;;5134584;27;19923;-68
2021/11/01 01:39:03;;;;;;;;;;;;;;;;;;5135890;27;19941;-68
2021/11/01 01:41:29;;;;;;;;;;;;;;;;;;5135968;27;19923;-69
2021/11/01 01:43:55;;;;;;;;;;;;;;;;;;5136232;27;19946;-69
2021/11/01 01:46:22;;;;;;;;;;;;;;;;;;5136093;27;19924;-68
2021/11/01 01:48:49;;;;;;;;;;;;;;;;;;5135801;27;19923;-68
2021/11/01 01:51:16;;;;;;;;;;;;;;;;;;5135863;27;20006;-69
2021/11/01 01:53:42;;;;;;;;;;;;;;;;;;5135964;27;20042;-68
2021/11/01 01:56:09;;;;;;;;;;;;;;;;;;5135625;27;19931;-68
2021/11/01 01:58:40;;;;;;;;;;;;;;;;;;5135634;27;19923;-68
2021/11/01 02:01:08;;;;;;;;;;;;;;;;;;5135310;27;19923;-68
2021/11/01 02:03:35;;;;;;;;;;;;;;;;;;5135119;27;19924;-68
2021/11/01 02:06:01;;;;;;;;;;;;;;;;;;5135698;27;19923;-68
2021/11/01 02:08:27;;;;;;;;;;;;;;;;;;5135160;27;20292;-68
2021/11/01 02:10:53;;;;;;;;;;;;;;;;;;5135277;27;19927;-68
2021/11/01 02:13:20;;;;;;;;;;;;;;;;;;5135540;27;19923;-69
2021/11/01 02:15:46;;;;;;;;;;;;;;;;;;5135007;27;20413;-68
2021/11/01 02:18:12;;;;;;;;;;;;;;;;;;5135174;27;19924;-69
2021/11/01 02:20:39;;;;;;;;;;;;;;;;;;5135044;27;19946;-68
2021/11/01 02:23:05;;;;;;;;;;;;;;;;;;5135274;27;19923;-69
2021/11/01 02:25:31;;;;;;;;;;;;;;;;;;5134755;27;19924;-68
2021/11/01 02:27:58;;;;;;;;;;;;;;;;;;5135227;27;19928;-68
2021/11/01 02:30:25;;;;;;;;;;;;;;;;;;5135148;27;19924;-68
2021/11/01 02:32:51;;;;;;;;;;;;;;;;;;5134949;27;20313;-68
2021/11/01 02:35:18;;;;;;;;;;;;;;;;;;5134889;27;19924;-69
2021/11/01 02:37:44;;;;;;;;;;;;;;;;;;5134532;27;19970;-69
2021/11/01 02:40:11;;;;;;;;;;;;;;;;;;5134927;27;19956;-68
2021/11/01 02:42:37;;;;;;;;;;;;;;;;;;5134397;27;20312;-70
2021/11/01 02:45:03;;;;;;;;;;;;;;;;;;5135043;27;19934;-69
2021/11/01 02:47:29;;;;;;;;;;;;;;;;;;5134172;27;20277;-69
2021/11/01 02:49:57;;;;;;;;;;;;;;;;;;5134785;27;19930;-69
2021/11/01 02:52:24;;;;;;;;;;;;;;;;;;5134475;27;19931;-69
2021/11/01 02:54:50;;;;;;;;;;;;;;;;;;5134451;27;19996;-69
2021/11/01 02:57:16;;;;;;;;;;;;;;;;;;5134906;27;20423;-69
2021/11/01 02:59:43;;;;;;;;;;;;;;;;;;5134033;27;19930;-69
2021/11/01 03:02:09;;;;;;;;;;;;;;;;;;5134503;27;19927;-69
2021/11/01 03:04:35;;;;;;;;;;;;;;;;;;5134266;27;19924;-69
2021/11/01 03:07:02;;;;;;;;;;;;;;;;;;5134437;27;19930;-69
2021/11/01 03:09:29;;;;;;;;;;;;;;;;;;5133942;27;20369;-68
2021/11/01 03:11:55;;;;;;;;;;;;;;;;;;5134035;27;19927;-68
2021/11/01 03:14:23;;;;;;;;;;;;;;;;;;5134392;27;19923;-68
2021/11/01 03:16:50;;;;;;;;;;;;;;;;;;5133715;27;20397;-68
2021/11/01 03:19:19;;;;;;;;;;;;;;;;;;5133900;27;19923;-69
2021/11/01 03:21:46;;;;;;;;;;;;;;;;;;5115080;27;20018;-68
2021/11/01 03:24:15;;;;;;;;;;;;;;;;;;5133620;27;20209;-68
2021/11/01 03:26:41;;;;;;;;;;;;;;;;;;5133625;27;19923;-69
2021/11/01 03:29:07;;;;;;;;;;;;;;;;;;5133986;27;19923;-68
2021/11/01 03:31:33;;;;;;;;;;;;;;;;;;5134108;27;19934;-69
2021/11/01 03:34:00;;;;;;;;;;;;;;;;;;5133943;27;20362;-68
2021/11/01 03:36:26;;;;;;;;;;;;;;;;;;5133833;27;19931;-69
2021/11/01 03:38:53;;;;;;;;;;;;;;;;;;5134124;27;19930;-69
2021/11/01 03:41:19;;;;;;;;;;;;;;;;;;5133757;27;20396;-68
2021/11/01 03:43:52;;;;;;;;;;;;;;;;;;5133445;27;19923;-69
2021/11/01 03:46:24;;;;;;;;;;;;;;;;;;5133826;27;19923;-69
2021/11/01 03:48:50;;;;;;;;;;;;;;;;;;5133349;27;19930;-68
2021/11/01 03:51:37;;;;;;;;;;;;;;;;;;5133884;27;19930;-68
2021/11/01 03:54:03;;;;;;;;;;;;;;;;;;5133430;27;20101;-69
2021/11/01 03:56:29;;;;;;;;;;;;;;;;;;5133425;27;19929;-68
2021/11/01 03:58:56;;;;;;;;;;;;;;;;;;5132641;27;19923;-68
2021/11/01 04:01:23;;;;;;;;;;;;;;;;;;5133766;27;19923;-68
2021/11/01 04:03:49;;;;;;;;;;;;;;;;;;5133224;28;19928;-68
2021/11/01 04:06:17;;;;;;;;;;;;;;;;;;5133608;28;19930;-68
2021/11/01 04:08:44;;;;;;;;;;;;;;;;;;5133037;28;20560;-68
2021/11/01 04:11:10;;;;;;;;;;;;;;;;;;5133537;28;19924;-68
2021/11/01 04:13:36;;;;;;;;;;;;;;;;;;5133393;28;19923;-68
2021/11/01 04:16:10;;;;;;;;;;;;;;;;;;5133291;28;19923;-68
2021/11/01 04:18:49;;;;;;;;;;;;;;;;;;5133411;28;20318;-69
2021/11/01 04:21:15;;;;;;;;;;;;;;;;;;5133247;28;20019;-68
2021/11/01 04:23:41;;;;;;;;;;;;;;;;;;5133220;28;20254;-69
2021/11/01 04:26:09;;;;;;;;;;;;;;;;;;5133226;28;19923;-68
2021/11/01 04:28:35;;;;;;;;;;;;;;;;;;5132923;28;20416;-68
2021/11/01 04:31:07;;;;;;;;;;;;;;;;;;5133216;28;19924;-68
2021/11/01 04:33:34;;;;;;;;;;;;;;;;;;5133468;28;20004;-69
2021/11/01 04:36:00;;;;;;;;;;;;;;;;;;5133612;28;20018;-68
2021/11/01 04:38:39;;;;;;;;;;;;;;;;;;5133068;28;20274;-68
2021/11/01 04:41:12;;;;;;;;;;;;;;;;;;5133520;28;19928;-68
2021/11/01 04:44:05;;;;;;;;;;;;;;;;;;5133160;28;19927;-68
2021/11/01 04:54:44;;;;;;;;;;;;;;;;;;5132855;28;19919;-69
2021/11/01 04:57:11;;;;;;;;;;;;;;;;;;5132894;27;19927;-69
2021/11/01 04:59:37;;;;;;;;;;;;;;;;;;5132920;28;19923;-69
2021/11/01 05:02:04;;;;;;;;;;;;;;;;;;5132769;28;19931;-68
2021/11/01 05:04:34;;;;;;;;;;;;;;;;;;5132526;28;20018;-68
2021/11/01 05:07:02;;;;;;;;;;;;;;;;;;5132839;28;19963;-68
2021/11/01 05:09:32;;;;;;;;;;;;;;;;;;5132827;27;19931;-68
2021/11/01 05:12:06;;;;;;;;;;;;;;;;;;5136258;27;19927;-68
2021/11/01 05:14:37;;;;;;;;;;;;;;;;;;5136264;27;20286;-69
2021/11/01 05:17:16;;;;;;;;;;;;;;;;;;5136523;27;19924;-68
2021/11/01 05:19:48;;;;;;;;;;;;;;;;;;5136336;27;19943;-68
2021/11/01 05:22:21;;;;;;;;;;;;;;;;;;5136303;27;19923;-69
2021/11/01 05:24:51;;;;;;;;;;;;;;;;;;5136239;27;19980;-69
2021/11/01 05:27:38;;;;;;;;;;;;;;;;;;5136249;27;20388;-69
2021/11/01 05:30:07;;;;;;;;;;;;;;;;;;5135984;27;19976;-71
2021/11/01 05:32:34;;;;;;;;;;;;;;;;;;5135729;27;19923;-70
2021/11/01 05:35:01;;;;;;;;;;;;;;;;;;5136372;27;19930;-68
2021/11/01 05:37:27;;;;;;;;;;;;;;;;;;5136006;27;20022;-69
2021/11/01 05:39:53;;;;;;;;;;;;;;;;;;5135920;27;19931;-68
2021/11/01 05:42:20;;;;;;;;;;;;;;;;;;5135844;27;19924;-68
2021/11/01 05:44:46;;;;;;;;;;;;;;;;;;5135762;27;19935;-69
2021/11/01 05:47:12;;;;;;;;;;;;;;;;;;5135827;27;20494;-69
2021/11/01 05:49:39;;;;;;;;;;;;;;;;;;5135487;27;19984;-69
2021/11/01 05:52:08;;;;;;;;;;;;;;;;;;5135672;27;20026;-69
2021/11/01 05:54:34;;;;;;;;;;;;;;;;;;5135764;27;19927;-69
2021/11/01 05:57:08;;;;;;;;;;;;;;;;;;5135783;27;20022;-69
2021/11/01 06:00:01;;;;;;;;;;;;;;;;;;5135412;27;20369;-69
2021/11/01 06:02:44;;;;;;;;;;;;;;;;;;5135268;27;19923;-69
2021/11/01 06:05:16;;;;;;;;;;;;;;;;;;5135460;27;19923;-69
2021/11/01 06:07:50;;;;;;;;;;;;;;;;;;5135131;27;20392;-68
2021/11/01 06:10:25;;;;;;;;;;;;;;;;;;5135641;27;19927;-69
2021/11/01 06:15:35;;;;;;;;;;;;;;;;;;5135211;27;19918;-68
2021/11/01 06:18:02;;;;;;;;;;;;;;;;;;5135216;27;19930;-68
2021/11/01 06:20:28;;;;;;;;;;;;;;;;;;5135252;27;19923;-68
2021/11/01 06:22:54;;;;;;;;;;;;;;;;;;5134184;27;20270;-68
2021/11/01 06:25:21;;;;;;;;;;;;;;;;;;5134997;27;19930;-68
2021/11/01 06:27:48;;;;;;;;;;;;;;;;;;5134670;27;19931;-68
2021/11/01 06:30:22;;;;;;;;;;;;;;;;;;5135471;27;19930;-68
2021/11/01 06:32:59;;;;;;;;;;;;;;;;;;5134977;27;19931;-68
2021/11/01 06:43:44;;;;;;;;;;;;;;;;;;5130573;27;19919;-68
2021/11/01 06:52:11;;;;;;;;;;;;;;;;;;5085512;27;19924;-67
2021/11/01 06:57:38;;;;;;;;;;;;;;;;;;5085258;27;19919;-68
2021/11/01 07:16:33;;;;;;;;;;;;;;;;;;5133984;27;19922;-68
2021/11/01 07:19:02;;;;;;;;;;;;;;;;;;5134638;27;19923;-68
2021/11/01 08:22:00;;;;;;;;;;;;;;;;;;5132847;28;19923;-67
2021/11/01 08:44:02;;;;;;;;;;;;;;;;;;5098012;28;19919;-67
2021/11/01 08:46:45;;;;;;;;;;;;;;;;;;5135720;27;19923;-67
2021/11/01 08:52:12;;;;;;;;;;;;;;;;;;5122502;27;19920;-67
2021/11/01 09:05:58;;;;;;;;;;;;;;;;;;5115225;27;19923;-67
2021/11/01 09:19:49;;;;;;;;;;;;;;;;;;5136506;27;20393;-67
2021/11/01 09:27:53;;;;;;;;;;;;;;;;;;5132358;27;19926;-67
2021/11/01 09:30:39;;;;;;;;;;;;;;;;;;5136578;27;20052;-67
2021/11/01 09:35:56;;;;;;;;;;;;;;;;;;5136265;27;19937;-67
2021/11/01 09:38:42;;;;;;;;;;;;;;;;;;5136411;27;20030;-67
2021/11/01 09:41:09;;;;;;;;;;;;;;;;;;5136176;27;19923;-67
2021/11/01 09:43:36;;;;;;;;;;;;;;;;;;5135773;27;19948;-66
2021/11/01 09:46:02;;;;;;;;;;;;;;;;;;5136010;27;20274;-67
2021/11/01 09:48:29;;;;;;;;;;;;;;;;;;5135571;27;19931;-67
2021/11/01 09:50:55;;;;;;;;;;;;;;;;;;5135990;27;19923;-66
2021/11/01 09:53:23;;;;;;;;;;;;;;;;;;5135739;27;19924;-67
2021/11/01 09:55:55;;;;;;;;;;;;;;;;;;5135610;27;20361;-66
2021/11/01 10:01:05;;;;;;;;;;;;;;;;;;5135987;27;19919;-67
2021/11/01 10:03:31;;;;;;;;;;;;;;;;;;5135286;27;19924;-67
2021/11/01 10:05:58;;;;;;;;;;;;;;;;;;5135627;27;19963;-67
2021/11/01 10:08:24;;;;;;;;;;;;;;;;;;5135844;27;19924;-68
2021/11/01 10:10:51;;;;;;;;;;;;;;;;;;5135739;27;19930;-68
2021/11/01 10:13:17;;;;;;;;;;;;;;;;;;5135479;27;19934;-68
2021/11/01 10:18:28;;;;;;;;;;;;;;;;;;5135163;27;19922;-68
2021/11/01 10:20:54;;;;;;;;;;;;;;;;;;5134935;27;19931;-68
2021/11/01 10:23:22;;;;;;;;;;;;;;;;;;5135095;27;19924;-68
2021/11/01 10:25:49;;;;;;;;;;;;;;;;;;5134677;27;19923;-68
2021/11/01 10:28:15;;;;;;;;;;;;;;;;;;5135267;27;19924;-68
2021/11/01 10:30:41;;;;;;;;;;;;;;;;;;5135073;27;19972;-68
2021/11/01 10:33:09;;;;;;;;;;;;;;;;;;5135277;27;19974;-68
2021/11/01 10:35:36;;;;;;;;;;;;;;;;;;5134628;27;20377;-68
2021/11/01 10:38:04;;;;;;;;;;;;;;;;;;5135170;27;19924;-68
2021/11/01 10:40:32;;;;;;;;;;;;;;;;;;5135039;27;19923;-68
2021/11/01 10:43:09;;;;;;;;;;;;;;;;;;5134650;27;20392;-68
2021/11/01 10:46:00;;;;;;;;;;;;;;;;;;5134621;27;20377;-69
2021/11/01 10:56:59;;;;;;;;;;;;;;;;;;5134372;27;20269;-67
2021/11/01 11:13:14;;;;;;;;;;;;;;;;;;5134685;27;19962;-67
2021/11/01 11:15:42;;;;;;;;;;;;;;;;;;5133934;27;19923;-67
2021/11/01 11:18:22;;;;;;;;;;;;;;;;;;5134455;27;19923;-67
2021/11/01 11:21:15;;;;;;;;;;;;;;;;;;5133904;27;19930;-67
2021/11/01 11:26:53;;;;;;;;;;;;;;;;;;5126580;27;19927;-67
2021/11/01 11:29:54;;;;;;;;;;;;;;;;;;5134065;27;20380;-67
2021/11/01 11:40:46;;;;;;;;;;;;;;;;;;5133860;27;19920;-67
2021/11/01 11:48:39;;;;;;;;;;;;;;;;;;5133385;27;20326;-67
2021/11/01 11:51:06;;;;;;;;;;;;;;;;;;5133920;27;19923;-67
2021/11/01 11:53:33;;;;;;;;;;;;;;;;;;5133499;27;19929;-67
2021/11/01 11:56:00;;;;;;;;;;;;;;;;;;5133573;27;19923;-67
2021/11/01 11:58:26;;;;;;;;;;;;;;;;;;5133358;27;19923;-67
2021/11/01 12:00:52;;;;;;;;;;;;;;;;;;5133727;27;19923;-67
2021/11/01 12:03:19;;;;;;;;;;;;;;;;;;5133334;27;20373;-67
2021/11/01 12:05:49;;;;;;;;;;;;;;;;;;5133064;28;20022;-68
2021/11/01 12:08:20;;;;;;;;;;;;;;;;;;5133329;27;20414;-68
2021/11/01 12:11:14;;;;;;;;;;;;;;;;;;5133447;28;19923;-68
2021/11/01 12:19:05;;;;;;;;;;;;;;;;;;5133356;27;20316;-68
2021/11/01 12:21:32;;;;;;;;;;;;;;;;;;5136259;27;19927;-67
2021/11/01 12:23:58;;;;;;;;;;;;;;;;;;5137777;27;19927;-68
2021/11/01 12:26:24;;;;;;;;;;;;;;;;;;5137282;27;19923;-67
2021/11/01 12:28:51;;;;;;;;;;;;;;;;;;5137264;27;19923;-67
2021/11/01 12:31:17;;;;;;;;;;;;;;;;;;5137140;27;19923;-67
2021/11/01 12:33:49;;;;;;;;;;;;;;;;;;5137423;27;19930;-67
2021/11/01 12:36:15;;;;;;;;;;;;;;;;;;5137476;27;19972;-67
2021/11/01 12:38:47;;;;;;;;;;;;;;;;;;5136972;27;19930;-67
2021/11/01 12:41:13;;;;;;;;;;;;;;;;;;5137115;27;19924;-68
2021/11/01 12:57:30;;;;;;;;;;;;;;;;;;5109012;27;19918;-65
2021/11/01 12:59:56;;;;;;;;;;;;;;;;;;5137109;27;19924;-66
2021/11/01 13:02:23;;;;;;;;;;;;;;;;;;5137021;27;19958;-66
2021/11/01 13:04:50;;;;;;;;;;;;;;;;;;5136325;27;19923;-66
2021/11/01 13:07:32;;;;;;;;;;;;;;;;;;5136903;27;19931;-66
2021/11/01 13:10:05;;;;;;;;;;;;;;;;;;5136773;27;19928;-66
2021/11/01 13:18:14;;;;;;;;;;;;;;;;;;5053053;28;20375;-67
2021/11/01 13:20:40;;;;;;;;;;;;;;;;;;5052387;28;20501;-67
2021/11/01 13:23:07;;;;;;;;;;;;;;;;;;5088750;27;20021;-68
2021/11/01 13:25:38;;;;;;;;;;;;;;;;;;5136316;27;19923;-68
2021/11/01 13:28:16;;;;;;;;;;;;;;;;;;5136365;27;20401;-67
2021/11/01 13:36:25;;;;;;;;;;;;;;;;;;5136242;27;19918;-67
2021/11/01 13:38:53;;;;;;;;;;;;;;;;;;5135849;27;19923;-68
2021/11/01 13:41:26;;;;;;;;;;;;;;;;;;5136253;27;20365;-67
2021/11/01 13:43:52;;;;;;;;;;;;;;;;;;5135818;27;19985;-67
2021/11/01 13:46:18;;;;;;;;;;;;;;;;;;5136069;27;19934;-68
2021/11/01 13:48:45;;;;;;;;;;;;;;;;;;5135848;27;19946;-68
2021/11/01 13:51:11;;;;;;;;;;;;;;;;;;5135869;27;19930;-67
2021/11/01 13:53:44;;;;;;;;;;;;;;;;;;5135394;27;19963;-67
2021/11/01 13:56:20;;;;;;;;;;;;;;;;;;5136038;27;19923;-67
2021/11/01 13:58:55;;;;;;;;;;;;;;;;;;5135722;27;19923;-67
2021/11/01 14:01:35;;;;;;;;;;;;;;;;;;5135866;27;19924;-67
2021/11/01 14:12:28;;;;;;;;;;;;;;;;;;5135262;27;20369;-67
2021/11/01 14:14:59;;;;;;;;;;;;;;;;;;5135568;27;19931;-67
2021/11/01 14:17:45;;;;;;;;;;;;;;;;;;5135556;27;19976;-67
2021/11/01 14:20:31;;;;;;;;;;;;;;;;;;5135124;27;19930;-67
2021/11/01 14:31:40;;;;;;;;;;;;;;;;;;5131088;27;19927;-67
2021/11/01 15:15:35;;;;;;;;;;;;;;;;;;5050752;28;19968;-66
2021/11/01 15:21:02;;;;;;;;;;;;;;;;;;5056795;27;19921;-67
2021/11/01 16:16:11;;;;;;;;;;;;;;;;;;5133351;28;20423;-66
2021/11/01 16:18:46;;;;;;;;;;;;;;;;;;5133079;28;19924;-66
2021/11/01 16:21:16;;;;;;;;;;;;;;;;;;5132305;28;19923;-66
2021/11/01 16:23:43;;;;;;;;;;;;;;;;;;5132691;28;19930;-66
2021/11/01 16:26:19;;;;;;;;;;;;;;;;;;5133061;28;19963;-66
2021/11/01 16:28:51;;;;;;;;;;;;;;;;;;5114498;28;19924;-66
2021/11/01 16:31:28;;;;;;;;;;;;;;;;;;5133077;28;20022;-66
2021/11/01 16:34:00;;;;;;;;;;;;;;;;;;5133010;28;20301;-66
2021/11/01 16:36:40;;;;;;;;;;;;;;;;;;5114605;28;19946;-66
2021/11/01 16:39:07;;;;;;;;;;;;;;;;;;5133110;28;20342;-66
2021/11/01 16:41:34;;;;;;;;;;;;;;;;;;5132744;28;19930;-66
2021/11/01 16:44:13;;;;;;;;;;;;;;;;;;5132996;28;20278;-66
2021/11/01 16:46:40;;;;;;;;;;;;;;;;;;5132494;28;20289;-66
2021/11/01 16:49:07;;;;;;;;;;;;;;;;;;5133026;28;19958;-66
2021/11/01 16:51:37;;;;;;;;;;;;;;;;;;5132677;28;20047;-66
2021/11/01 16:54:07;;;;;;;;;;;;;;;;;;5132904;27;19923;-66
2021/11/01 16:56:45;;;;;;;;;;;;;;;;;;5132978;28;19923;-66
2021/11/01 16:59:15;;;;;;;;;;;;;;;;;;5132846;28;20016;-66
2021/11/01 17:01:49;;;;;;;;;;;;;;;;;;5132449;28;19930;-67
2021/11/01 17:04:18;;;;;;;;;;;;;;;;;;5133118;28;19931;-66
2021/11/01 17:06:51;;;;;;;;;;;;;;;;;;5134135;27;19923;-66
2021/11/01 17:09:40;;;;;;;;;;;;;;;;;;5136157;27;20323;-66
2021/11/01 17:23:12;;;;;;;;;;;;;;;;;;5136407;27;20445;-66
2021/11/01 17:25:56;;;;;;;;;;;;;;;;;;5136027;27;19978;-67
2021/11/01 17:28:41;;;;;;;;;;;;;;;;;;5136570;27;19983;-66
2021/11/01 17:31:36;;;;;;;;;;;;;;;;;;5136080;27;19924;-67
2021/11/01 17:36:56;;;;;;;;;;;;;;;;;;5136181;27;19988;-67
2021/11/01 18:37:24;;;;;;;;;;;;;;;;;;5135166;27;20006;-67
2021/11/01 18:40:08;;;;;;;;;;;;;;;;;;5134382;27;19952;-67
2021/11/01 18:51:03;;;;;;;;;;;;;;;;;;5134578;27;19941;-65
2021/11/01 18:53:32;;;;;;;;;;;;;;;;;;5134355;27;19930;-66
2021/11/01 18:56:00;;;;;;;;;;;;;;;;;;5134519;27;20318;-65
2021/11/01 18:58:27;;;;;;;;;;;;;;;;;;5134410;27;19923;-66
2021/11/01 19:00:55;;;;;;;;;;;;;;;;;;5134396;27;19923;-66
2021/11/01 19:03:24;;;;;;;;;;;;;;;;;;5134307;27;20010;-66
2021/11/01 19:05:56;;;;;;;;;;;;;;;;;;5134302;27;19931;-66
2021/11/01 19:08:31;;;;;;;;;;;;;;;;;;5134280;27;19931;-66
2021/11/01 19:11:46;;;;;;;;;;;;;;;;;;5134663;27;19924;-66
2021/11/01 20:03:58;;;;;;;;;;;;;;;;;;5133442;27;19919;-71
2021/11/01 20:06:46;;;;;;;;;;;;;;;;;;5133406;27;19923;-71
2021/11/01 21:26:03;;;;;;;;;;;;;;;;;;5109283;28;19919;-71
2021/11/01 21:28:30;;;;;;;;;;;;;;;;;;5097188;28;19973;-72
2021/11/01 21:30:56;;;;;;;;;;;;;;;;;;5105692;28;19923;-71
2021/11/01 21:33:23;;;;;;;;;;;;;;;;;;5116065;28;19928;-71
2021/11/01 21:35:51;;;;;;;;;;;;;;;;;;5115774;28;19926;-71
2021/11/01 21:38:18;;;;;;;;;;;;;;;;;;5116009;28;19924;-70
2021/11/01 21:40:44;;;;;;;;;;;;;;;;;;5115339;27;19924;-71
2021/11/01 21:43:11;;;;;;;;;;;;;;;;;;5115431;28;19931;-71
2021/11/01 21:45:38;;;;;;;;;;;;;;;;;;5115163;28;19930;-71
2021/11/01 21:48:04;;;;;;;;;;;;;;;;;;5115838;28;19973;-70
2021/11/01 21:50:30;;;;;;;;;;;;;;;;;;5115506;28;19924;-69
2021/11/01 21:53:00;;;;;;;;;;;;;;;;;;5115381;28;20288;-69
2021/11/01 21:55:27;;;;;;;;;;;;;;;;;;5115039;28;19924;-69
2021/11/01 21:57:56;;;;;;;;;;;;;;;;;;5115254;28;19923;-69
2021/11/01 22:00:41;;;;;;;;;;;;;;;;;;5115226;28;20297;-69
2021/11/01 22:16:52;;;;;;;;;;;;;;;;;;5114344;28;19927;-69
2021/11/01 22:22:26;;;;;;;;;;;;;;;;;;5114869;28;19926;-70
2021/11/01 22:25:04;;;;;;;;;;;;;;;;;;5114789;28;19931;-69
2021/11/01 22:33:13;;;;;;;;;;;;;;;;;;5114788;28;19935;-68
2021/11/01 22:38:40;;;;;;;;;;;;;;;;;;5114330;28;19942;-68
2021/11/01 22:41:18;;;;;;;;;;;;;;;;;;5114177;28;19924;-67
2021/11/01 22:44:11;;;;;;;;;;;;;;;;;;5114317;28;19969;-68
2021/11/01 22:46:50;;;;;;;;;;;;;;;;;;5114179;28;19923;-68
2021/11/01 22:57:29;;;;;;;;;;;;;;;;;;5114042;28;19923;-68
2021/11/01 22:59:55;;;;;;;;;;;;;;;;;;5113905;28;19924;-68
2021/11/01 23:02:22;;;;;;;;;;;;;;;;;;5113999;28;19927;-68
2021/11/01 23:04:51;;;;;;;;;;;;;;;;;;5114055;28;20430;-68
2021/11/01 23:31:53;;;;;;;;;;;;;;;;;;5113516;28;19919;-68
2021/11/01 23:34:19;;;;;;;;;;;;;;;;;;5113632;28;20331;-68
2021/11/01 23:36:46;;;;;;;;;;;;;;;;;;5113069;28;19976;-68
2021/11/01 23:39:12;;;;;;;;;;;;;;;;;;5113450;28;20312;-68
2021/11/01 23:41:38;;;;;;;;;;;;;;;;;;5113511;27;19924;-68
2021/11/01 23:44:05;;;;;;;;;;;;;;;;;;5113350;28;20396;-68
2021/11/01 23:46:31;;;;;;;;;;;;;;;;;;5113272;28;19973;-68
2021/11/01 23:48:58;;;;;;;;;;;;;;;;;;5113464;28;19924;-68
2021/11/01 23:51:30;;;;;;;;;;;;;;;;;;5113275;28;19972;-68
2021/11/01 23:54:11;;;;;;;;;;;;;;;;;;5113471;28;19931;-67
2021/11/01 23:56:38;;;;;;;;;;;;;;;;;;5112849;28;20022;-68
2021/11/01 23:59:04;;;;;;;;;;;;;;;;;;5113250;28;19923;-67
